Time;durP1;ratioP1;P1;durP2;ratioP2;P2;SDS_P1;SDS_P2;PMS_P1;PMS_P2;Temp;Humidity;BMP_temperature;BMP_pressure;BME280_temperature;BME280_humidity;BME280_pressure;Samples;Min_cycle;Max_cycle;Signal;HPM_P1;HPM_P2
2022/12/03 00:00:06;;;;;;;12.23;9.27;;;;;;;21.63;41.95;95578.41;5053514;28;20112;-65
2022/12/03 00:02:31;;;;;;;13.00;9.77;;;;;;;21.73;42.03;95590.56;5046018;28;20033;-65
2022/12/03 00:04:57;;;;;;;12.00;9.60;;;;;;;21.71;42.18;95590.31;5030152;28;20429;-64
2022/12/03 00:07:22;;;;;;;11.23;9.45;;;;;;;21.71;42.01;95595.75;5048837;28;20049;-64
2022/12/03 00:09:47;;;;;;;12.02;9.35;;;;;;;21.67;42.27;95606.09;5045119;28;20052;-62
2022/12/03 00:12:13;;;;;;;13.15;10.15;;;;;;;21.69;42.29;95603.66;5036773;28;20049;-63
2022/12/03 00:14:38;;;;;;;11.27;9.43;;;;;;;21.67;42.12;95616.97;5020563;28;20046;-64
2022/12/03 00:17:04;;;;;;;12.60;9.70;;;;;;;21.48;41.99;95577.81;5032640;28;20034;-63
2022/12/03 00:19:29;;;;;;;11.88;9.15;;;;;;;21.51;42.36;95598.59;5031668;28;20040;-63
2022/12/03 00:21:55;;;;;;;12.63;9.43;;;;;;;21.64;42.08;95607.06;5043328;28;20045;-63
2022/12/03 00:24:20;;;;;;;11.63;9.43;;;;;;;21.65;42.54;95614.00;5046924;28;20505;-62
2022/12/03 00:26:45;;;;;;;11.23;8.80;;;;;;;21.46;42.18;95585.69;5047421;28;20536;-64
2022/12/03 00:29:11;;;;;;;12.13;8.98;;;;;;;21.64;42.26;95612.50;5047289;28;20483;-64
2022/12/03 00:31:36;;;;;;;12.50;9.50;;;;;;;21.63;42.14;95628.06;5047353;28;20039;-63
2022/12/03 00:34:02;;;;;;;10.82;8.95;;;;;;;21.62;42.39;95614.97;5038774;28;20053;-62
2022/12/03 00:36:27;;;;;;;11.07;8.93;;;;;;;21.59;42.27;95618.66;5063028;28;20045;-63
2022/12/03 00:38:53;;;;;;;10.45;8.45;;;;;;;20.49;41.97;95455.94;5044807;28;20062;-63
2022/12/03 00:41:18;;;;;;;11.73;9.05;;;;;;;21.60;42.21;95628.31;5012676;28;20041;-63
2022/12/03 00:43:43;;;;;;;11.77;8.82;;;;;;;21.55;42.22;95626.25;5045111;28;20768;-64
2022/12/03 00:46:09;;;;;;;11.45;9.02;;;;;;;21.58;42.24;95625.28;5044422;28;20048;-64
2022/12/03 00:48:34;;;;;;;11.27;8.73;;;;;;;21.56;42.23;95633.19;5040738;28;20053;-64
2022/12/03 00:51:00;;;;;;;11.95;9.15;;;;;;;21.58;42.36;95636.16;5044361;28;20040;-64
2022/12/03 00:53:25;;;;;;;10.68;8.57;;;;;;;20.80;42.21;95518.44;5044467;28;20040;-63
2022/12/03 00:55:51;;;;;;;10.93;8.57;;;;;;;21.57;42.33;95645.56;5028861;28;20037;-64
2022/12/03 00:58:16;;;;;;;10.93;8.90;;;;;;;21.37;42.50;95632.00;5045154;28;20419;-63
2022/12/03 01:00:42;;;;;;;10.52;8.65;;;;;;;20.61;42.20;95506.38;5046776;28;20370;-64
2022/12/03 01:03:07;;;;;;;11.48;8.45;;;;;;;21.54;42.34;95646.53;5045756;28;20118;-63
2022/12/03 01:05:33;;;;;;;10.77;8.70;;;;;;;21.54;42.27;95641.09;5047910;28;20053;-63
2022/12/03 01:07:58;;;;;;;10.85;8.45;;;;;;;21.34;42.39;95616.66;5047496;28;20044;-63
2022/12/03 01:10:24;;;;;;;10.60;8.40;;;;;;;21.51;42.25;95647.50;5047244;28;20068;-64
2022/12/03 01:12:49;;;;;;;10.52;8.55;;;;;;;21.50;42.45;95651.44;5045675;28;20090;-64
2022/12/03 01:15:15;;;;;;;10.63;8.77;;;;;;;21.47;42.36;95649.66;5035405;28;20160;-65
2022/12/03 01:17:40;;;;;;;11.15;8.25;;;;;;;21.50;42.55;95656.88;5008775;28;20048;-64
2022/12/03 01:20:06;;;;;;;10.10;8.40;;;;;;;21.47;42.23;95649.66;5045224;28;20497;-63
2022/12/03 01:22:33;;;;;;;11.55;8.43;;;;;;;21.49;42.34;95655.38;5026602;28;20049;-63
2022/12/03 01:24:58;;;;;;;10.13;8.13;;;;;;;21.47;42.34;95652.38;5046106;28;20394;-63
2022/12/03 01:27:23;;;;;;;10.90;8.55;;;;;;;21.49;42.48;95660.78;5046767;28;20049;-64
2022/12/03 01:29:49;;;;;;;10.48;8.02;;;;;;;21.40;42.12;95647.34;5046254;28;20044;-64
2022/12/03 01:32:21;;;;;;;10.45;8.32;;;;;;;21.31;42.51;95627.75;5045342;28;20029;-65
2022/12/03 01:34:47;;;;;;;10.20;7.97;;;;;;;21.46;42.44;95661.75;5030298;28;20477;-64
2022/12/03 01:37:13;;;;;;;9.85;8.13;;;;;;;21.46;42.35;95661.75;5012421;28;20548;-63
2022/12/03 01:39:39;;;;;;;11.10;8.88;;;;;;;21.45;42.52;95665.69;5046377;28;20151;-64
2022/12/03 01:42:04;;;;;;;9.70;8.32;;;;;;;21.45;42.42;95660.25;5044527;28;20071;-64
2022/12/03 01:44:31;;;;;;;9.95;8.52;;;;;;;20.56;42.49;95526.06;5034350;28;20084;-64
2022/12/03 01:46:58;;;;;;;10.02;7.68;;;;;;;21.41;42.49;95654.28;5061062;28;20033;-63
2022/12/03 01:49:44;;;;;;;9.80;7.97;;;;;;;21.43;42.57;95658.03;5026472;28;20133;-63
2022/12/03 01:52:18;;;;;;;10.73;8.30;;;;;;;21.43;42.49;95657.25;5021357;28;20149;-63
2022/12/03 01:54:55;;;;;;;10.27;8.13;;;;;;;21.34;42.33;95668.28;5022699;28;20533;-65
2022/12/03 01:57:48;;;;;;;10.25;7.95;;;;;;;21.21;42.36;95629.91;5027195;28;20084;-64
2022/12/03 02:00:18;;;;;;;10.20;7.68;;;;;;;20.96;42.35;95598.06;5039534;28;20052;-63
2022/12/03 02:02:44;;;;;;;8.88;7.70;;;;;;;21.41;42.47;95648.13;5043239;28;20127;-65
2022/12/03 02:05:16;;;;;;;9.73;7.28;;;;;;;21.24;42.67;95622.75;5006028;28;20034;-63
2022/12/03 02:07:41;;;;;;;9.60;7.60;;;;;;;21.39;42.52;95654.03;5039525;28;20108;-63
2022/12/03 02:10:07;;;;;;;10.13;7.25;;;;;;;21.39;42.63;95667.59;5043523;28;20052;-65
2022/12/03 02:12:35;;;;;;;8.98;7.22;;;;;;;21.39;42.65;95655.97;5022950;28;20647;-64
2022/12/03 02:15:00;;;;;;;9.18;7.95;;;;;;;21.12;42.45;95616.47;5036643;28;20045;-64
2022/12/03 02:17:26;;;;;;;9.82;7.65;;;;;;;20.36;42.43;95496.28;5060609;28;20751;-64
2022/12/03 02:19:51;;;;;;;9.90;7.35;;;;;;;20.46;42.49;95522.00;5044384;28;20033;-65
2022/12/03 02:22:54;;;;;;;9.60;7.75;;;;;;;21.37;42.54;95653.75;5030818;28;20433;-64
2022/12/03 02:25:24;;;;;;;8.73;7.35;;;;;;;21.17;42.54;95623.94;5041867;28;20045;-65
2022/12/03 02:27:50;;;;;;;9.23;7.55;;;;;;;21.37;42.51;95648.31;5044390;28;20483;-63
2022/12/03 02:30:17;;;;;;;9.38;7.20;;;;;;;21.35;42.65;95650.78;5045814;28;20037;-63
2022/12/03 02:32:43;;;;;;;8.43;6.90;;;;;;;21.35;42.46;95645.34;5042794;28;20060;-63
2022/12/03 02:35:19;;;;;;;9.20;7.32;;;;;;;21.35;42.61;95650.03;5028122;28;20067;-63
2022/12/03 02:37:45;;;;;;;8.95;6.88;;;;;;;21.26;42.53;95631.91;5046185;28;20021;-63
2022/12/03 02:40:14;;;;;;;9.05;7.15;;;;;;;21.34;42.72;95643.84;5037195;28;20091;-64
2022/12/03 02:42:39;;;;;;;9.50;7.22;;;;;;;21.34;42.54;95637.66;5043106;28;20052;-64
2022/12/03 02:45:16;;;;;;;7.60;6.80;;;;;;;20.57;42.12;95533.00;5043341;28;20069;-65
2022/12/03 02:47:46;;;;;;;9.32;7.30;;;;;;;21.24;42.74;95655.34;5042636;28;20041;-63
2022/12/03 02:50:13;;;;;;;8.70;7.03;;;;;;;20.63;42.43;95558.22;5026204;28;20037;-62
2022/12/03 02:52:38;;;;;;;8.57;6.80;;;;;;;21.23;42.62;95632.88;5042683;28;20193;-63
2022/12/03 02:55:04;;;;;;;8.45;6.47;;;;;;;21.30;42.42;95665.06;5039571;28;20033;-63
2022/12/03 02:57:30;;;;;;;8.43;6.57;;;;;;;21.29;42.55;95647.25;5038744;28;20051;-63
2022/12/03 02:59:55;;;;;;;7.50;6.28;;;;;;;20.84;42.58;95568.56;5026051;28;20046;-64
2022/12/03 03:02:21;;;;;;;9.25;7.22;;;;;;;19.11;42.31;95313.28;5045062;28;20040;-65
2022/12/03 03:04:46;;;;;;;8.10;6.63;;;;;;;21.30;42.58;95681.34;5043905;28;20448;-64
2022/12/03 03:07:12;;;;;;;7.80;6.60;;;;;;;21.28;42.35;95662.06;5039439;28;20444;-64
2022/12/03 03:09:37;;;;;;;7.82;6.47;;;;;;;21.29;42.71;95665.53;5041722;28;20815;-64
2022/12/03 03:12:03;;;;;;;8.68;6.65;;;;;;;20.02;42.44;95461.88;5041675;28;20045;-66
2022/12/03 03:14:28;;;;;;;7.88;6.63;;;;;;;21.28;42.45;95662.06;5029297;28;20522;-63
2022/12/03 03:16:56;;;;;;;8.32;6.63;;;;;;;21.24;42.67;95645.25;5036730;28;20185;-66
2022/12/03 03:19:25;;;;;;;8.57;6.65;;;;;;;21.16;42.63;95638.72;5040692;28;20140;-64
2022/12/03 03:21:53;;;;;;;7.45;6.07;;;;;;;21.26;42.55;95661.78;5031167;28;20481;-63
2022/12/03 03:24:19;;;;;;;7.97;6.68;;;;;;;21.27;42.63;95644.28;5040608;28;20061;-63
2022/12/03 03:26:45;;;;;;;7.45;6.10;;;;;;;20.98;42.59;95601.06;5042438;28;20364;-64
2022/12/03 03:29:10;;;;;;;7.80;5.80;;;;;;;21.26;42.46;95631.91;5026403;28;20530;-65
2022/12/03 03:31:36;;;;;;;7.88;6.07;;;;;;;20.28;42.58;95487.03;5023675;28;20048;-63
2022/12/03 03:34:01;;;;;;;7.63;6.07;;;;;;;21.25;42.78;95640.53;5041522;28;20056;-66
2022/12/03 03:36:27;;;;;;;8.48;6.47;;;;;;;21.24;42.72;95677.84;5005416;28;20494;-63
2022/12/03 03:38:52;;;;;;;7.53;5.97;;;;;;;21.23;42.75;95665.47;5042100;28;20052;-64
2022/12/03 03:41:18;;;;;;;8.02;6.22;;;;;;;21.24;42.75;95645.25;5042635;28;20543;-64
2022/12/03 03:43:43;;;;;;;7.20;5.95;;;;;;;20.32;42.53;95512.00;5043126;28;20477;-63
2022/12/03 03:46:08;;;;;;;7.30;6.07;;;;;;;21.23;42.58;95640.28;5041037;28;20090;-64
2022/12/03 03:48:34;;;;;;;7.70;6.53;;;;;;;21.23;42.70;95649.16;5041512;28;20053;-63
2022/12/03 03:51:02;;;;;;;7.22;6.10;;;;;;;21.23;42.58;95653.88;5059279;28;20040;-64
2022/12/03 03:53:28;;;;;;;8.07;6.30;;;;;;;21.22;42.56;95669.41;5010529;28;20037;-64
2022/12/03 03:55:53;;;;;;;7.68;6.00;;;;;;;21.09;42.59;95660.88;5044767;28;20441;-64
2022/12/03 03:58:19;;;;;;;7.50;6.20;;;;;;;21.03;42.66;95624.03;5027606;28;20441;-66
2022/12/03 04:00:44;;;;;;;6.35;5.40;;;;;;;21.10;42.67;95634.47;5046267;28;20063;-63
2022/12/03 04:03:10;;;;;;;7.18;6.13;;;;;;;21.19;42.57;95656.78;5041109;28;20041;-65
2022/12/03 04:05:35;;;;;;;7.43;5.97;;;;;;;21.19;42.49;95654.06;5026966;28;20521;-64
2022/12/03 04:08:00;;;;;;;6.60;5.57;;;;;;;21.18;42.55;95658.03;5043984;28;20036;-65
2022/12/03 04:13:10;;;;;;;7.13;5.63;;;;;;;21.03;42.60;95641.09;5021403;28;20143;-64
2022/12/03 04:15:35;;;;;;;7.47;6.03;;;;;;;20.98;42.71;95638.28;5018728;28;20049;-64
2022/12/03 04:20:45;;;;;;;6.47;5.10;;;;;;;20.46;42.49;95570.09;4987640;28;20458;-61
2022/12/03 04:23:11;;;;;;;6.53;5.75;;;;;;;21.16;42.81;95678.72;4985803;28;20037;-62
2022/12/03 04:35:41;;;;;;;7.22;5.50;;;;;;;21.15;42.62;95675.28;5009264;28;20119;-61
2022/12/03 04:36:34;;;;;;;6.75;5.15;;;;;;;21.15;42.84;95686.13;5023341;23;20048;-63
2022/12/03 04:38:59;;;;;;;6.07;5.43;;;;;;;21.14;42.69;95690.06;5010790;28;20046;-64
2022/12/03 04:41:25;;;;;;;6.20;5.25;;;;;;;21.15;42.80;95688.09;5007427;28;20029;-64
2022/12/03 04:46:34;;;;;;;6.13;5.20;;;;;;;21.14;42.81;95695.50;5000563;28;20045;-63
2022/12/03 04:48:59;;;;;;;6.72;5.70;;;;;;;21.13;42.71;95688.56;5007930;28;20045;-64
2022/12/03 04:51:25;;;;;;;6.88;4.57;;;;;;;21.13;42.77;95688.56;5005146;28;20042;-63
2022/12/03 04:53:50;;;;;;;6.43;5.13;;;;;;;21.12;42.66;95687.09;5005255;28;20073;-63
2022/12/03 04:56:16;;;;;;;5.65;4.88;;;;;;;21.12;42.69;95681.66;5005234;28;20025;-65
2022/12/03 04:58:41;;;;;;;6.38;5.00;;;;;;;20.97;42.64;95664.72;5004291;28;20052;-65
2022/12/03 05:01:07;;;;;;;5.80;4.88;;;;;;;21.12;42.59;95681.66;5005702;28;20447;-64
2022/12/03 05:03:32;;;;;;;6.35;5.20;;;;;;;21.10;42.63;95694.94;5004505;28;20514;-64
2022/12/03 05:05:58;;;;;;;6.55;5.32;;;;;;;21.11;42.70;95688.31;5005427;28;20046;-64
2022/12/03 05:08:23;;;;;;;6.75;5.28;;;;;;;21.10;42.82;95697.66;5004563;28;20382;-65
2022/12/03 05:10:48;;;;;;;6.25;5.13;;;;;;;21.19;42.73;95683.19;5007154;28;20029;-64
2022/12/03 05:13:14;;;;;;;5.47;4.57;;;;;;;21.33;42.67;95693.97;4990928;28;20049;-64
2022/12/03 05:15:39;;;;;;;6.38;4.75;;;;;;;20.58;42.52;95578.63;4995037;28;20042;-63
2022/12/03 05:18:05;;;;;;;6.15;5.00;;;;;;;21.21;42.47;95657.06;5003623;28;20042;-63
2022/12/03 05:20:42;;;;;;;6.53;4.68;;;;;;;21.58;42.13;95695.97;4991107;28;20056;-63
2022/12/03 05:23:09;;;;;;;5.25;4.43;;;;;;;21.60;41.96;95690.81;4992159;28;20451;-64
2022/12/03 05:25:34;;;;;;;6.13;4.80;;;;;;;21.70;42.15;95687.44;4989221;28;20038;-63
2022/12/03 05:27:59;;;;;;;6.10;4.82;;;;;;;21.78;41.57;95682.28;4991314;28;20041;-65
2022/12/03 05:30:25;;;;;;;5.53;4.40;;;;;;;21.98;41.51;95696.53;5001972;28;20034;-64
2022/12/03 05:32:50;;;;;;;6.85;5.07;;;;;;;21.25;41.13;95591.66;4994860;28;20093;-63
2022/12/03 05:35:16;;;;;;;5.75;4.43;;;;;;;21.73;41.34;95675.56;4998262;28;20030;-64
2022/12/03 05:37:41;;;;;;;5.72;4.38;;;;;;;22.09;41.37;95704.78;4996590;28;20046;-65
2022/12/03 05:40:07;;;;;;;5.03;4.47;;;;;;;22.16;41.29;95707.78;5000767;28;20030;-64
2022/12/03 05:45:17;;;;;;;5.03;4.20;;;;;;;22.31;40.85;95713.88;4996821;28;20053;-64
2022/12/03 05:47:43;;;;;;;5.97;4.72;;;;;;;22.11;40.94;95675.88;4998205;28;20041;-63
2022/12/03 05:50:08;;;;;;;5.00;4.28;;;;;;;22.27;40.78;95691.59;5001215;28;20489;-62
2022/12/03 05:52:34;;;;;;;5.60;4.63;;;;;;;22.40;40.58;95710.94;4997059;28;20111;-65
2022/12/03 05:54:59;;;;;;;6.25;4.70;;;;;;;22.04;40.66;95646.38;4998889;28;20048;-64
2022/12/03 05:57:24;;;;;;;5.32;4.45;;;;;;;22.49;40.70;95725.09;4990037;28;20050;-64
2022/12/03 05:59:50;;;;;;;6.28;4.47;;;;;;;22.59;40.32;95695.72;5007040;28;20050;-63
2022/12/03 06:02:15;;;;;;;5.95;4.38;;;;;;;22.70;40.44;95723.00;4988184;28;20098;-63
2022/12/03 06:04:41;;;;;;;5.22;4.13;;;;;;;22.94;39.51;95727.63;4995162;28;20030;-65
2022/12/03 06:07:06;;;;;;;4.93;4.00;;;;;;;22.76;39.85;95729.97;4983822;28;20042;-64
2022/12/03 06:09:32;;;;;;;5.88;4.40;;;;;;;22.60;39.89;95703.41;4991442;28;20161;-63
2022/12/03 06:11:57;;;;;;;5.00;3.80;;;;;;;22.14;39.45;95601.47;4995116;28;20050;-64
2022/12/03 06:14:23;;;;;;;5.05;3.92;;;;;;;23.16;39.62;95733.13;4992298;28;20057;-64
2022/12/03 06:16:48;;;;;;;5.10;4.20;;;;;;;22.59;39.50;95668.50;5003932;28;20046;-64
2022/12/03 06:19:13;;;;;;;5.10;4.05;;;;;;;22.79;39.07;95665.63;5005634;28;20034;-64
2022/12/03 06:21:39;;;;;;;5.43;4.40;;;;;;;23.36;39.09;95735.66;4997752;28;20030;-64
2022/12/03 06:24:04;;;;;;;4.95;4.03;;;;;;;23.27;39.43;95716.81;4999081;28;20089;-68
2022/12/03 06:26:30;;;;;;;4.90;3.78;;;;;;;23.42;39.22;95739.91;5001626;28;20076;-65
2022/12/03 06:28:55;;;;;;;4.68;3.80;;;;;;;23.59;39.20;95742.69;4988097;28;20517;-63
2022/12/03 06:31:21;;;;;;;6.32;4.10;;;;;;;23.63;39.29;95737.72;4998327;28;20052;-63
2022/12/03 06:33:47;;;;;;;4.40;3.70;;;;;;;23.66;39.14;95747.66;4988433;28;20115;-62
2022/12/03 06:36:12;;;;;;;4.85;4.00;;;;;;;23.75;38.91;95744.72;4997064;28;20537;-61
2022/12/03 06:38:38;;;;;;;5.22;3.42;;;;;;;23.70;38.75;95748.19;4996638;28;20564;-64
2022/12/03 06:41:03;;;;;;;5.22;3.90;;;;;;;23.68;38.80;95753.41;4986431;28;20035;-63
2022/12/03 06:43:29;;;;;;;4.18;3.58;;;;;;;23.64;39.02;95731.06;4989798;28;20034;-64
2022/12/03 06:45:55;;;;;;;4.18;3.05;;;;;;;23.58;38.70;95695.56;4999373;28;20546;-63
2022/12/03 06:48:20;;;;;;;3.95;3.15;;;;;;;23.71;38.31;95744.22;4998042;28;20025;-61
2022/12/03 06:50:46;;;;;;;4.35;3.60;;;;;;;23.98;38.02;95742.25;5004394;28;20049;-63
2022/12/03 06:53:11;;;;;;;4.18;3.63;;;;;;;23.91;38.39;95742.75;4993998;28;20550;-63
2022/12/03 06:55:37;;;;;;;5.65;4.05;;;;;;;23.88;38.09;95743.75;4994534;28;20424;-64
2022/12/03 06:58:02;;;;;;;4.60;3.53;;;;;;;23.75;38.88;95761.06;4993564;28;20050;-63
2022/12/03 07:00:27;;;;;;;4.65;3.22;;;;;;;23.86;38.53;95740.75;4995222;28;20033;-64
2022/12/03 07:02:53;;;;;;;4.45;3.38;;;;;;;23.70;38.02;95720.91;4982473;28;20056;-64
2022/12/03 07:05:18;;;;;;;3.92;3.38;;;;;;;23.61;38.64;95724.56;4995673;28;20038;-64
2022/12/03 07:07:49;;;;;;;4.05;3.20;;;;;;;23.77;38.63;95747.72;4992268;28;20053;-64
2022/12/03 07:10:14;;;;;;;4.00;3.10;;;;;;;23.42;37.76;95671.00;4993228;28;20026;-62
2022/12/03 07:12:39;;;;;;;3.75;3.30;;;;;;;24.03;37.87;95755.16;4991234;28;20044;-63
2022/12/03 07:15:05;;;;;;;3.78;3.15;;;;;;;24.03;38.22;95755.16;4992400;28;20030;-64
2022/12/03 07:17:31;;;;;;;3.95;3.15;;;;;;;24.01;37.71;95756.91;4991461;28;20046;-63
2022/12/03 07:19:56;;;;;;;4.40;3.03;;;;;;;23.86;38.46;95784.41;4959608;28;20061;-64
2022/12/03 07:22:22;;;;;;;3.78;3.20;;;;;;;23.90;38.21;95763.09;4984432;28;20411;-65
2022/12/03 07:24:47;;;;;;;3.90;3.13;;;;;;;23.81;38.42;95770.00;4993615;28;20022;-62
2022/12/03 07:27:13;;;;;;;4.15;3.20;;;;;;;23.91;38.13;95764.56;5004090;28;20042;-63
2022/12/03 07:29:38;;;;;;;4.28;2.90;;;;;;;23.82;38.77;95761.34;4994174;28;20053;-64
2022/12/03 07:32:04;;;;;;;3.97;3.28;;;;;;;24.15;38.08;95762.09;4995983;28;20046;-64
2022/12/03 07:34:29;;;;;;;3.88;3.03;;;;;;;23.90;38.49;95763.09;4996761;28;20045;-62
2022/12/03 07:36:55;;;;;;;4.00;3.13;;;;;;;24.13;37.65;95780.97;5000992;28;20054;-64
2022/12/03 07:39:20;;;;;;;3.85;3.10;;;;;;;23.37;37.55;95677.22;4998956;28;20030;-64
2022/12/03 07:41:45;;;;;;;3.50;3.00;;;;;;;23.75;38.05;95777.44;4999057;28;20045;-63
2022/12/03 07:44:11;;;;;;;3.30;2.75;;;;;;;23.82;38.31;95763.31;5002951;28;20104;-63
2022/12/03 07:46:37;;;;;;;3.45;2.80;;;;;;;23.89;37.71;95772.50;4998966;28;20049;-64
2022/12/03 07:49:02;;;;;;;3.50;3.00;;;;;;;22.52;37.37;95543.75;4997562;28;20065;-61
2022/12/03 07:51:28;;;;;;;3.47;2.85;;;;;;;23.06;37.45;95633.81;4998911;28;20475;-63
2022/12/03 07:53:53;;;;;;;3.83;2.85;;;;;;;24.08;37.40;95768.06;5000057;28;20145;-63
2022/12/03 07:56:19;;;;;;;3.72;3.05;;;;;;;24.01;37.59;95773.28;4995113;28;20047;-64
2022/12/03 07:58:44;;;;;;;3.97;3.08;;;;;;;23.08;38.13;95672.19;4974496;28;20454;-62
2022/12/03 08:01:10;;;;;;;4.15;3.00;;;;;;;23.75;37.09;95701.06;5000502;28;20434;-65
2022/12/03 08:03:35;;;;;;;3.95;3.30;;;;;;;24.35;37.13;95770.81;5001278;28;20396;-64
2022/12/03 08:06:00;;;;;;;4.18;3.20;;;;;;;23.47;36.90;95648.50;5000310;28;20119;-64
2022/12/03 08:08:26;;;;;;;3.53;2.85;;;;;;;24.18;37.52;95771.28;5004657;28;20486;-64
2022/12/03 08:10:51;;;;;;;3.30;2.88;;;;;;;24.00;37.73;95777.97;5002787;28;20060;-64
2022/12/03 08:13:17;;;;;;;3.70;2.90;;;;;;;23.93;37.69;95764.84;5000735;28;20041;-64
2022/12/03 08:15:43;;;;;;;3.78;2.67;;;;;;;23.28;37.32;95658.38;5003249;28;20040;-64
2022/12/03 08:18:12;;;;;;;4.07;2.90;;;;;;;24.27;37.31;95779.22;4988995;28;20495;-64
2022/12/03 08:20:39;;;;;;;3.22;2.75;;;;;;;24.23;37.05;95763.13;4994363;28;20133;-65
2022/12/03 08:23:30;;;;;;;3.55;2.70;;;;;;;24.19;37.54;95789.91;5003303;28;20057;-66
2022/12/03 08:26:00;;;;;;;3.72;2.67;;;;;;;22.87;37.47;95602.03;4995442;28;20073;-63
2022/12/03 08:28:26;;;;;;;3.25;2.60;;;;;;;23.87;37.49;95761.34;4971072;28;20131;-64
2022/12/03 08:31:06;;;;;;;3.20;2.63;;;;;;;23.80;37.92;95801.28;4972104;28;20474;-64
2022/12/03 08:33:34;;;;;;;3.38;2.38;;;;;;;23.21;38.08;95707.88;5004231;28;20029;-65
2022/12/03 08:36:00;;;;;;;3.65;2.60;;;;;;;23.80;38.10;95795.81;5005789;28;20426;-64
2022/12/03 08:38:25;;;;;;;3.90;2.60;;;;;;;23.59;37.98;95772.69;5004745;28;20046;-63
2022/12/03 08:40:51;;;;;;;3.78;2.53;;;;;;;23.60;38.47;95798.69;4967945;28;20046;-63
2022/12/03 08:43:16;;;;;;;2.88;2.47;;;;;;;23.81;37.96;95805.47;4992546;28;20050;-64
2022/12/03 08:45:42;;;;;;;3.17;2.50;;;;;;;23.24;38.13;95793.38;5008101;28;20033;-63
2022/12/03 08:48:33;;;;;;;3.67;2.80;;;;;;;23.73;37.99;95797.03;4989912;28;20026;-64
2022/12/03 08:51:24;;;;;;;3.55;2.90;;;;;;;23.35;38.35;95775.09;4996812;28;20081;-63
2022/12/03 08:53:51;;;;;;;2.85;2.42;;;;;;;23.42;38.34;95772.63;4991383;28;20525;-65
2022/12/03 08:56:27;;;;;;;4.00;2.50;;;;;;;23.49;38.81;95804.13;4989555;28;20154;-64
2022/12/03 08:59:02;;;;;;;2.88;2.45;;;;;;;23.41;38.41;95792.19;5007177;28;20034;-63
2022/12/03 09:01:28;;;;;;;3.83;2.50;;;;;;;23.52;38.32;95800.41;4977938;28;20033;-65
2022/12/03 09:03:54;;;;;;;3.42;2.75;;;;;;;22.42;38.72;95664.97;4987369;28;20034;-64
2022/12/03 09:06:20;;;;;;;3.45;2.55;;;;;;;23.14;38.66;95746.53;5001023;28;20029;-64
2022/12/03 09:08:45;;;;;;;3.17;2.67;;;;;;;23.08;39.30;95764.81;4974034;28;20038;-64
2022/12/03 09:11:11;;;;;;;3.40;2.70;;;;;;;22.54;38.99;95682.81;4988632;28;20400;-63
2022/12/03 09:13:37;;;;;;;3.42;2.45;;;;;;;23.20;39.44;95788.16;4973183;28;20490;-64
2022/12/03 09:16:02;;;;;;;3.00;2.33;;;;;;;23.23;39.39;95792.63;5007628;28;20556;-64
2022/12/03 09:18:27;;;;;;;3.63;2.20;;;;;;;23.32;39.13;95795.16;5007110;28;20782;-64
2022/12/03 09:20:53;;;;;;;2.85;2.55;;;;;;;23.16;39.32;95790.34;4987418;28;20038;-65
2022/12/03 09:23:18;;;;;;;2.92;2.45;;;;;;;23.21;38.94;95786.16;5003510;28;20514;-64
2022/12/03 09:25:44;;;;;;;3.08;2.38;;;;;;;23.17;39.04;95789.13;5007516;28;20029;-64
2022/12/03 09:28:09;;;;;;;2.78;2.30;;;;;;;23.02;39.33;95788.56;5007915;28;20099;-66
2022/12/03 09:30:34;;;;;;;3.45;2.60;;;;;;;23.05;39.62;95787.59;5007363;28;20022;-63
2022/12/03 09:33:00;;;;;;;2.80;2.33;;;;;;;23.13;39.67;95796.03;5006726;28;20038;-64
2022/12/03 09:35:26;;;;;;;2.97;2.50;;;;;;;22.20;39.23;95664.81;5007925;28;20493;-63
2022/12/03 09:37:52;;;;;;;3.35;2.47;;;;;;;23.02;39.24;95804.91;4970509;28;20081;-64
2022/12/03 09:40:17;;;;;;;2.50;2.10;;;;;;;22.99;39.46;95792.25;5002076;28;20030;-64
2022/12/03 09:42:43;;;;;;;2.72;2.33;;;;;;;22.87;39.69;95770.13;5007312;28;20044;-65
2022/12/03 09:45:09;;;;;;;3.40;2.53;;;;;;;22.80;39.87;95754.25;4990789;28;20037;-64
2022/12/03 09:47:36;;;;;;;4.45;2.20;;;;;;;22.97;39.81;95796.69;4972144;28;20150;-63
2022/12/03 09:50:02;;;;;;;3.25;2.33;;;;;;;22.95;39.72;95786.28;5005658;28;20152;-64
2022/12/03 09:52:28;;;;;;;3.47;2.35;;;;;;;22.93;39.44;95786.03;4989697;28;20117;-65
2022/12/03 09:54:53;;;;;;;2.95;2.35;;;;;;;22.91;39.48;95777.59;4989504;28;20113;-65
2022/12/03 09:57:19;;;;;;;2.80;2.28;;;;;;;22.85;39.83;95775.31;5008429;28;20026;-65
2022/12/03 09:59:44;;;;;;;3.85;2.13;;;;;;;22.90;39.60;95776.09;5005564;28;20053;-65
2022/12/03 10:02:18;;;;;;;3.22;2.22;;;;;;;22.77;39.83;95763.41;4986718;28;20483;-65
2022/12/03 10:04:44;;;;;;;3.17;2.50;;;;;;;22.87;40.01;95759.22;5000838;28;20073;-64
2022/12/03 10:07:09;;;;;;;3.08;2.17;;;;;;;22.88;39.97;95760.72;5007503;28;20058;-64
2022/12/03 10:09:34;;;;;;;3.10;2.20;;;;;;;22.82;40.08;95757.22;4989870;28;20660;-64
2022/12/03 10:12:00;;;;;;;2.78;2.15;;;;;;;22.77;40.09;95749.78;5006205;28;20053;-65
2022/12/03 10:14:25;;;;;;;2.85;2.13;;;;;;;22.86;39.96;95753.03;5007341;28;20045;-64
2022/12/03 10:16:51;;;;;;;3.30;2.22;;;;;;;22.08;39.65;95630.59;5007401;28;20525;-64
2022/12/03 10:19:20;;;;;;;2.92;2.20;;;;;;;21.91;39.88;95614.66;5004919;28;20317;-64
2022/12/03 10:21:46;;;;;;;2.65;2.10;;;;;;;22.65;40.00;95723.72;5005711;28;20062;-64
2022/12/03 10:24:28;;;;;;;2.80;2.40;;;;;;;22.77;40.08;95738.91;4989669;28;20029;-64
2022/12/03 10:26:55;;;;;;;3.00;2.35;;;;;;;22.66;39.94;95725.19;4988932;28;20049;-64
2022/12/03 10:29:25;;;;;;;3.40;2.30;;;;;;;22.74;39.82;95739.88;4969118;28;20054;-63
2022/12/03 10:32:10;;;;;;;2.83;2.22;;;;;;;22.74;39.86;95777.97;4988390;28;20041;-64
2022/12/03 10:34:40;;;;;;;2.80;2.20;;;;;;;22.37;40.03;95684.72;4997057;28;20122;-64
2022/12/03 10:37:32;;;;;;;3.22;2.20;;;;;;;22.60;39.48;95719.75;4984717;28;20042;-63
2022/12/03 10:40:01;;;;;;;3.05;2.10;;;;;;;22.77;40.04;95738.91;4994717;28;20171;-64
2022/12/03 10:42:31;;;;;;;2.83;2.17;;;;;;;22.59;39.85;95717.50;5011419;28;20056;-64
2022/12/03 10:45:11;;;;;;;3.28;2.22;;;;;;;22.73;40.19;95754.69;4954354;28;20061;-64
2022/12/03 10:47:36;;;;;;;2.63;2.22;;;;;;;22.59;39.93;95739.28;4984774;28;20038;-64
2022/12/03 10:50:04;;;;;;;3.00;2.13;;;;;;;22.76;39.79;95732.69;4997210;28;20426;-64
2022/12/03 10:52:29;;;;;;;2.53;2.13;;;;;;;22.05;39.78;95637.00;4996143;28;20050;-65
2022/12/03 10:54:54;;;;;;;3.88;2.55;;;;;;;22.59;39.68;95703.91;5006797;28;20398;-63
2022/12/03 10:57:20;;;;;;;3.17;2.50;;;;;;;22.65;39.72;95708.13;4989466;28;20064;-64
2022/12/03 10:59:46;;;;;;;3.83;2.42;;;;;;;22.44;40.10;95689.72;5003403;28;20041;-64
2022/12/03 11:02:20;;;;;;;3.05;2.30;;;;;;;22.73;39.73;95711.88;4956651;28;20159;-64
2022/12/03 11:04:46;;;;;;;3.40;2.38;;;;;;;22.69;39.73;95705.94;4972012;28;20045;-65
2022/12/03 11:07:14;;;;;;;3.20;2.10;;;;;;;22.72;39.86;95720.53;4987987;28;20038;-65
2022/12/03 11:09:42;;;;;;;3.08;2.50;;;;;;;21.78;39.63;95562.66;4993423;28;20482;-63
2022/12/03 11:12:18;;;;;;;3.10;2.50;;;;;;;22.73;39.72;95722.03;4970510;28;20022;-64
2022/12/03 11:14:49;;;;;;;3.10;2.45;;;;;;;22.69;39.76;95716.06;5006406;28;20064;-65
2022/12/03 11:17:43;;;;;;;3.15;2.40;;;;;;;22.75;39.70;95722.28;5004188;28;20054;-64
2022/12/03 11:20:24;;;;;;;3.50;2.60;;;;;;;22.76;39.85;95724.50;5004103;28;20133;-64
2022/12/03 11:22:53;;;;;;;2.63;2.03;;;;;;;21.92;39.96;95606.75;4995935;28;20124;-65
2022/12/03 11:25:28;;;;;;;3.20;2.42;;;;;;;22.70;40.06;95712.13;4983369;28;20123;-63
2022/12/03 11:28:11;;;;;;;5.93;2.70;;;;;;;22.70;39.98;95723.00;5005858;28;20048;-65
2022/12/03 11:30:52;;;;;;;4.95;3.10;;;;;;;22.23;40.28;95652.97;5007181;28;20029;-64
2022/12/03 11:33:31;;;;;;;4.30;2.90;;;;;;;22.69;40.17;95721.50;5004857;28;20129;-64
2022/12/03 11:36:02;;;;;;;4.35;3.08;;;;;;;22.70;39.94;95717.56;5005099;28;20125;-64
2022/12/03 11:38:37;;;;;;;4.35;2.90;;;;;;;22.66;39.95;95722.47;5009717;28;20042;-62
2022/12/03 11:41:24;;;;;;;4.72;3.05;;;;;;;22.65;40.35;95710.13;5009354;28;20041;-64
2022/12/03 11:43:56;;;;;;;4.18;2.75;;;;;;;22.73;39.86;95705.69;4991768;28;20037;-64
2022/12/03 11:46:26;;;;;;;4.25;2.80;;;;;;;22.20;40.20;95631.44;5008866;28;20092;-65
2022/12/03 11:48:53;;;;;;;3.80;2.70;;;;;;;22.60;40.10;95697.19;4986961;28;20046;-65
2022/12/03 11:51:20;;;;;;;4.40;2.78;;;;;;;22.62;40.12;95700.19;4976530;28;20022;-63